createdAt,value
2023-02-13T00:00:59.679Z,2.1
2023-02-13T00:02:09.036Z,1.7
2023-02-13T00:03:17.717Z,2.2
2023-02-13T00:04:26.372Z,2
2023-02-13T00:05:36.059Z,1.5
2023-02-13T00:06:44.755Z,1.5
2023-02-13T00:07:54.440Z,1.8
2023-02-13T00:09:04.305Z,1.7
2023-02-13T00:10:13.936Z,1.7
2023-02-13T00:11:23.646Z,2.1
2023-02-13T00:12:32.340Z,2.4
2023-02-13T00:13:41.004Z,1.6
2023-02-13T00:14:50.698Z,2.2
2023-02-13T00:15:59.434Z,2
2023-02-13T00:17:10.114Z,1.7
2023-02-13T00:18:18.725Z,1.9
2023-02-13T00:19:28.387Z,1.6
2023-02-13T00:20:38.095Z,2.1
2023-02-13T00:21:46.787Z,1.8
2023-02-13T00:22:55.455Z,1.8
2023-02-13T00:24:04.146Z,1.7
2023-02-13T00:25:11.805Z,2
2023-02-13T00:26:21.501Z,2.2
2023-02-13T00:27:31.258Z,2.1
2023-02-13T00:28:39.858Z,2.1
2023-02-13T00:29:50.547Z,2
2023-02-13T00:31:00.665Z,2.1
2023-02-13T00:32:10.030Z,2
2023-02-13T00:33:19.581Z,2.4
2023-02-13T00:34:27.241Z,1.9
2023-02-13T00:35:36.899Z,2.1
2023-02-13T00:36:46.561Z,1.9
2023-02-13T00:37:54.249Z,2.9
2023-02-13T00:39:03.940Z,1.7
2023-02-13T00:40:12.601Z,1.6
2023-02-13T00:41:21.291Z,1.6
2023-02-13T00:42:31.107Z,1.8
2023-02-13T00:43:39.665Z,2
2023-02-13T00:44:49.353Z,1.9
2023-02-13T00:45:58.081Z,1.9
2023-02-13T00:47:05.721Z,1.5
2023-02-13T00:48:15.376Z,1.8
2023-02-13T00:49:23.138Z,1.9
2023-02-13T00:50:32.818Z,2.1
2023-02-13T00:51:42.499Z,2.2
2023-02-13T00:52:50.192Z,2
2023-02-13T00:53:59.861Z,2.1
2023-02-13T00:55:08.573Z,1.8
2023-02-13T00:56:17.256Z,2.1
2023-02-13T00:57:26.928Z,2.7
2023-02-13T00:58:35.613Z,1.8
2023-02-13T00:59:44.264Z,3
2023-02-13T01:00:53.953Z,1.8
2023-02-13T01:02:01.656Z,2.9
2023-02-13T01:03:11.312Z,2.5
2023-02-13T01:04:19.954Z,1.6
2023-02-13T01:05:28.656Z,2.2
2023-02-13T01:06:38.340Z,2.2
2023-02-13T01:07:47.030Z,2.4
2023-02-13T01:08:55.702Z,2.4
2023-02-13T01:10:05.382Z,2.3
2023-02-13T01:11:14.071Z,2.3
2023-02-13T01:12:24.773Z,2.2
2023-02-13T01:13:33.425Z,3.1
2023-02-13T01:14:42.102Z,2
2023-02-13T01:15:51.844Z,2.9
2023-02-13T01:17:00.522Z,2
2023-02-13T01:18:10.246Z,2.4
2023-02-13T01:19:20.058Z,2.3
2023-02-13T01:20:28.729Z,2.4
2023-02-13T01:21:38.423Z,2.4
2023-02-13T01:22:48.081Z,1.7
2023-02-13T01:23:57.809Z,2.5
2023-02-13T01:25:07.504Z,1.9
2023-02-13T01:26:15.134Z,2.7
2023-02-13T01:27:24.809Z,2.1
2023-02-13T01:28:34.528Z,2.7
2023-02-13T01:29:43.216Z,2.3
2023-02-13T01:30:52.892Z,2.5
2023-02-13T01:32:01.571Z,1.9
2023-02-13T01:33:11.185Z,1.8
2023-02-13T01:34:20.872Z,1.8
2023-02-13T01:35:29.540Z,2.2
2023-02-13T01:36:39.250Z,2.3
2023-02-13T01:37:47.949Z,2
2023-02-13T01:38:56.603Z,2
2023-02-13T01:40:06.269Z,2.1
2023-02-13T01:41:13.961Z,2.3
2023-02-13T01:42:23.642Z,2.1
2023-02-13T01:43:32.292Z,2.2
2023-02-13T01:44:41.007Z,2.1
2023-02-13T01:45:49.677Z,2
2023-02-13T01:46:59.373Z,2.1
2023-02-13T01:48:08.026Z,2.4
2023-02-13T01:49:17.694Z,2.6
2023-02-13T01:50:25.410Z,2.4
2023-02-13T01:51:35.064Z,1.9
2023-02-13T01:52:43.824Z,2.4
2023-02-13T01:53:51.504Z,2.1
2023-02-13T01:55:01.183Z,2
2023-02-13T01:56:09.859Z,2
2023-02-13T01:57:19.549Z,2.1
2023-02-13T01:58:28.238Z,2
2023-02-13T01:59:35.898Z,2
2023-02-13T02:00:45.576Z,2.2
2023-02-13T02:01:54.402Z,1.4
2023-02-13T02:03:03.952Z,1.8
2023-02-13T02:04:13.635Z,1.9
2023-02-13T02:05:23.291Z,1.8
2023-02-13T02:06:32.961Z,2
2023-02-13T02:07:42.628Z,2
2023-02-13T02:08:50.279Z,2.6
2023-02-13T02:10:00.008Z,1.9
2023-02-13T02:11:09.653Z,1.8
2023-02-13T02:12:18.323Z,1.7
2023-02-13T02:13:27.980Z,2.3
2023-02-13T02:14:35.703Z,1.7
2023-02-13T02:15:45.357Z,2.2
2023-02-13T02:16:55.016Z,2.4
2023-02-13T02:18:04.668Z,2.1
2023-02-13T02:19:14.359Z,2.2
2023-02-13T02:20:23.012Z,1.5
2023-02-13T02:21:32.692Z,1.8
2023-02-13T02:22:42.390Z,1.8
2023-02-13T02:23:51.034Z,1.6
2023-02-13T02:24:59.693Z,2
2023-02-13T02:26:09.393Z,1.6
2023-02-13T02:27:18.273Z,1.5
2023-02-13T02:28:28.040Z,1.5
2023-02-13T02:29:37.605Z,1.5
2023-02-13T02:30:46.306Z,1.7
2023-02-13T02:31:55.976Z,1.6
2023-02-13T02:33:05.638Z,1.4
2023-02-13T02:34:14.323Z,1.3
2023-02-13T02:35:23.990Z,1.5
2023-02-13T02:36:31.703Z,1.6
2023-02-13T02:37:41.383Z,1.8
2023-02-13T02:38:50.061Z,1.4
2023-02-13T02:39:59.746Z,1.2
2023-02-13T02:41:09.423Z,1.5
2023-02-13T02:42:18.127Z,1.2
2023-02-13T02:43:27.793Z,1.6
2023-02-13T02:44:37.512Z,1.8
2023-02-13T02:45:46.201Z,1.6
2023-02-13T02:46:55.892Z,1.9
2023-02-13T02:48:04.523Z,1.7
2023-02-13T02:49:13.183Z,1.3
2023-02-13T02:50:22.858Z,1.4
2023-02-13T02:51:30.503Z,1.8
2023-02-13T02:52:39.195Z,1.5
2023-02-13T02:53:48.897Z,2.3
2023-02-13T02:54:56.559Z,1.4
2023-02-13T02:56:06.258Z,1.5
2023-02-13T02:57:14.914Z,1.7
2023-02-13T02:58:22.635Z,1.6
2023-02-13T02:59:32.285Z,1.8
2023-02-13T03:00:40.989Z,1.4
2023-02-13T03:01:49.617Z,1.5
2023-02-13T03:02:59.293Z,1.7
2023-02-13T03:04:06.994Z,1.7
2023-02-13T03:05:16.622Z,1.6
2023-02-13T03:06:25.286Z,1.4
2023-02-13T03:07:34.962Z,1.5
2023-02-13T03:08:44.623Z,2
2023-02-13T03:09:53.289Z,1.4
2023-02-13T03:11:02.951Z,1.8
2023-02-13T03:12:12.603Z,1.5
2023-02-13T03:13:20.308Z,1.5
2023-02-13T03:14:29.001Z,2.2
2023-02-13T03:15:38.636Z,1.6
2023-02-13T03:16:47.317Z,2.7
2023-02-13T03:17:57.023Z,1.8
2023-02-13T03:19:04.685Z,1.4
2023-02-13T03:20:14.363Z,1.8
2023-02-13T03:21:24.011Z,1.4
2023-02-13T03:22:33.686Z,1.8
2023-02-13T03:23:43.363Z,1.4
2023-02-13T03:24:52.069Z,2
2023-02-13T03:25:59.737Z,1.3
2023-02-13T03:27:09.442Z,1.6
2023-02-13T03:28:18.210Z,1.9
2023-02-13T03:29:27.838Z,1.5
2023-02-13T03:30:35.619Z,1.8
2023-02-13T03:31:44.262Z,1.8
2023-02-13T03:32:53.914Z,2
2023-02-13T03:34:01.592Z,1.8
2023-02-13T03:35:11.243Z,1.7
2023-02-13T03:36:19.939Z,1.8
2023-02-13T03:37:27.608Z,1.5
2023-02-13T03:38:37.283Z,1.5
2023-02-13T03:39:45.946Z,1.5
2023-02-13T03:40:54.792Z,1.8
2023-02-13T03:42:03.321Z,2.6
2023-02-13T03:43:11.999Z,1.7
2023-02-13T03:44:21.642Z,1.8
2023-02-13T03:45:30.291Z,2.2
2023-02-13T03:46:37.986Z,1.9
2023-02-13T03:47:47.678Z,1.5
2023-02-13T03:48:55.337Z,1.8
2023-02-13T03:50:04.995Z,1.6
2023-02-13T03:51:14.642Z,1.7
2023-02-13T03:52:23.309Z,1.8
2023-02-13T03:53:32.996Z,1.3
2023-02-13T03:54:41.657Z,1.3
2023-02-13T03:55:51.320Z,1.5
2023-02-13T03:57:00.988Z,1.4
2023-02-13T03:58:08.647Z,2.1
2023-02-13T03:59:18.366Z,1.6
2023-02-13T04:00:28.031Z,1.6
2023-02-13T04:01:36.753Z,1.4
2023-02-13T04:02:46.456Z,1.1
2023-02-13T04:03:55.131Z,1.6
2023-02-13T04:05:04.828Z,1.5
2023-02-13T04:06:13.488Z,2.1
2023-02-13T04:07:22.161Z,1.5
2023-02-13T04:08:31.861Z,1.6
2023-02-13T04:09:41.536Z,1.1
2023-02-13T04:10:50.231Z,1.4
2023-02-13T04:11:59.904Z,1.7
2023-02-13T04:13:08.604Z,1.9
2023-02-13T04:14:16.270Z,1.7
2023-02-13T04:15:25.936Z,1.2
2023-02-13T04:16:35.760Z,1.7
2023-02-13T04:17:44.322Z,1.8
2023-02-13T04:18:54.037Z,1.5
2023-02-13T04:20:02.669Z,1.2
2023-02-13T04:21:12.325Z,1.7
2023-02-13T04:22:22.026Z,1.4
2023-02-13T04:23:30.676Z,1.6
2023-02-13T04:24:40.342Z,1.3
2023-02-13T04:25:48.002Z,1.7
2023-02-13T04:26:56.660Z,1.5
2023-02-13T04:28:06.439Z,1.6
2023-02-13T04:29:13.994Z,1.5
2023-02-13T04:30:23.748Z,1.3
2023-02-13T04:31:32.429Z,1.6
2023-02-13T04:32:41.986Z,1.8
2023-02-13T04:33:50.708Z,1.2
2023-02-13T04:34:59.406Z,1.4
2023-02-13T04:36:08.067Z,1.3
2023-02-13T04:37:17.729Z,1.4
2023-02-13T04:38:26.392Z,1.8
2023-02-13T04:39:36.204Z,1.6
2023-02-13T04:40:45.808Z,1.5
2023-02-13T04:41:53.456Z,1.7
2023-02-13T04:43:03.151Z,1.6
2023-02-13T04:44:11.821Z,1.5
2023-02-13T04:45:20.522Z,1.1
2023-02-13T04:46:30.185Z,1.4
2023-02-13T04:47:38.853Z,1.3
2023-02-13T04:48:48.508Z,1.6
2023-02-13T04:49:57.150Z,1.6
2023-02-13T04:51:06.874Z,1.7
2023-02-13T04:52:16.496Z,1.5
2023-02-13T04:53:25.176Z,1.5
2023-02-13T04:54:34.827Z,1.5
2023-02-13T04:55:44.490Z,1.5
2023-02-13T04:56:51.181Z,1.4
2023-02-13T04:58:00.822Z,1.6
2023-02-13T04:59:09.466Z,1.8
2023-02-13T05:00:18.168Z,1.3
2023-02-13T05:01:27.887Z,1.6
2023-02-13T05:02:35.525Z,1.9
2023-02-13T05:03:45.184Z,1.4
2023-02-13T05:04:53.828Z,1.6
2023-02-13T05:06:01.494Z,1.9
2023-02-13T05:07:11.188Z,1.7
2023-02-13T05:08:20.877Z,1.3
2023-02-13T05:09:29.552Z,1.7
2023-02-13T05:10:39.210Z,1.6
2023-02-13T05:11:47.880Z,1.2
2023-02-13T05:12:56.555Z,2.1
2023-02-13T05:14:06.292Z,1.6
2023-02-13T05:15:14.961Z,1.9
2023-02-13T05:16:24.634Z,1.8
2023-02-13T05:17:34.346Z,1.3
2023-02-13T05:18:43.010Z,1.9
2023-02-13T05:19:52.680Z,1.6
2023-02-13T05:21:01.382Z,1.6
2023-02-13T05:22:10.134Z,2.3
2023-02-13T05:23:19.922Z,1.7
2023-02-13T05:24:28.577Z,1.7
2023-02-13T05:25:37.293Z,1.4
2023-02-13T05:26:46.988Z,1.7
2023-02-13T05:27:56.669Z,1.7
2023-02-13T05:29:05.325Z,1.6
2023-02-13T05:30:13.030Z,1.8
2023-02-13T05:31:23.910Z,1.3
2023-02-13T05:32:32.461Z,1.5
2023-02-13T05:33:41.155Z,1.7
2023-02-13T05:34:50.836Z,2
2023-02-13T05:35:59.504Z,1.7
2023-02-13T05:37:09.436Z,1.5
2023-02-13T05:38:18.100Z,2.1
2023-02-13T05:39:27.824Z,1.3
2023-02-13T05:40:37.465Z,1.7
2023-02-13T05:41:45.150Z,1.6
2023-02-13T05:42:52.847Z,2
2023-02-13T05:44:02.554Z,1.4
2023-02-13T05:45:11.211Z,1.7
2023-02-13T05:46:21.078Z,1.5
2023-02-13T05:47:30.700Z,2
2023-02-13T05:48:39.412Z,2
2023-02-13T05:49:49.053Z,1.8
2023-02-13T05:50:56.944Z,1.9
2023-02-13T05:52:07.358Z,1.8
2023-02-13T05:53:17.236Z,1.8
2023-02-13T05:54:24.914Z,1.9
2023-02-13T05:55:34.625Z,1.7
2023-02-13T05:56:43.315Z,2.2
2023-02-13T05:57:51.982Z,1.2
2023-02-13T05:59:01.648Z,2
2023-02-13T06:00:10.360Z,1.6
2023-02-13T06:01:18.996Z,1.5
2023-02-13T06:02:28.715Z,1.9
2023-02-13T06:03:37.374Z,1.7
2023-02-13T06:04:46.997Z,2
2023-02-13T06:05:55.672Z,1.6
2023-02-13T06:07:04.325Z,1.8
2023-02-13T06:08:13.980Z,1.7
2023-02-13T06:09:22.636Z,2.2
2023-02-13T06:10:31.285Z,2
2023-02-13T06:11:41.004Z,2.1
2023-02-13T06:12:48.649Z,2
2023-02-13T06:13:58.305Z,1.8
2023-02-13T06:15:07.957Z,2
2023-02-13T06:16:16.657Z,2.1
2023-02-13T06:17:26.301Z,2.8
2023-02-13T06:18:34.978Z,1.7
2023-02-13T06:19:44.637Z,1.7
2023-02-13T06:20:54.330Z,2
2023-02-13T06:22:02.980Z,1.8
2023-02-13T06:23:12.700Z,2.3
2023-02-13T06:24:21.362Z,1.8
2023-02-13T06:25:29.019Z,1.6
2023-02-13T06:26:38.683Z,2.1
2023-02-13T06:27:46.377Z,2.1
2023-02-13T06:28:56.035Z,2.3
2023-02-13T06:30:06.047Z,1.2
2023-02-13T06:31:15.809Z,2.1
2023-02-13T06:32:25.398Z,1.6
2023-02-13T06:33:35.045Z,1.8
2023-02-13T06:34:43.738Z,2.3
2023-02-13T06:35:53.429Z,2
2023-02-13T06:37:02.101Z,1.9
2023-02-13T06:38:11.759Z,2.3
2023-02-13T06:39:21.417Z,2
2023-02-13T06:40:29.320Z,1.9
2023-02-13T06:41:38.994Z,2.6
2023-02-13T06:42:47.685Z,1.8
2023-02-13T06:43:55.378Z,1.5
2023-02-13T06:45:05.008Z,1.9
2023-02-13T06:46:12.774Z,2.2
2023-02-13T06:47:22.394Z,1.8
2023-02-13T06:48:32.052Z,1.8
2023-02-13T06:49:40.724Z,1.9
2023-02-13T06:50:50.375Z,1.7
2023-02-13T06:51:58.057Z,2
2023-02-13T06:53:05.716Z,1.9
2023-02-13T06:54:15.388Z,2
2023-02-13T06:55:24.039Z,2.4
2023-02-13T06:56:33.737Z,1.6
2023-02-13T06:57:43.427Z,1.9
2023-02-13T06:58:52.084Z,1.9
2023-02-13T07:00:01.775Z,2.1
2023-02-13T07:01:11.465Z,1.9
2023-02-13T07:02:21.159Z,1.9
2023-02-13T07:03:30.831Z,1.9
2023-02-13T07:04:39.555Z,2.1
2023-02-13T07:05:48.228Z,2.4
2023-02-13T07:06:57.900Z,2.6
2023-02-13T07:08:06.547Z,2
2023-02-13T07:09:16.241Z,2
2023-02-13T07:10:25.887Z,2.1
2023-02-13T07:11:34.536Z,2.1
2023-02-13T07:12:45.748Z,1.9
2023-02-13T07:13:53.862Z,1.9
2023-02-13T07:15:03.617Z,2.5
2023-02-13T07:16:13.405Z,1.6
2023-02-13T07:17:20.921Z,1.8
2023-02-13T07:18:30.610Z,2.3
2023-02-13T07:19:40.261Z,2.3
2023-02-13T07:20:47.927Z,1.5
2023-02-13T07:21:57.597Z,2.1
2023-02-13T07:23:05.257Z,1.7
2023-02-13T07:24:13.921Z,1.9
2023-02-13T07:25:23.587Z,2.1
2023-02-13T07:26:33.392Z,1.8
2023-02-13T07:27:43.040Z,1.9
2023-02-13T07:29:02.477Z,2.2
2023-02-13T07:30:03.368Z,1.8
2023-02-13T07:31:12.105Z,1.6
2023-02-13T07:32:20.742Z,2.1
2023-02-13T07:33:30.413Z,1.9
2023-02-13T07:34:42.686Z,2.6
2023-02-13T07:35:48.748Z,2
2023-02-13T07:36:58.407Z,1.7
2023-02-13T07:38:07.091Z,1.7
2023-02-13T07:39:16.754Z,2.4
2023-02-13T07:40:25.418Z,1.7
2023-02-13T07:41:33.120Z,1.7
2023-02-13T07:42:42.812Z,2.1
2023-02-13T07:43:52.554Z,2
2023-02-13T07:45:02.204Z,1.9
2023-02-13T07:46:11.844Z,4.3
2023-02-13T07:47:21.506Z,4
2023-02-13T07:48:31.208Z,3.5
2023-02-13T07:49:39.870Z,2.9
2023-02-13T07:50:49.551Z,2.5
2023-02-13T07:51:59.233Z,2.5
2023-02-13T07:53:08.969Z,2.2
2023-02-13T07:54:17.656Z,2.9
2023-02-13T07:55:27.416Z,2.5
2023-02-13T07:56:36.047Z,2.4
2023-02-13T07:57:45.714Z,2.6
2023-02-13T07:58:55.373Z,1.8
2023-02-13T08:00:05.047Z,2.8
2023-02-13T08:01:14.760Z,2.9
2023-02-13T08:02:23.424Z,2.5
2023-02-13T08:03:33.134Z,2.6
2023-02-13T08:04:42.793Z,2.5
2023-02-13T08:05:51.440Z,2.4
2023-02-13T08:07:01.130Z,2.1
2023-02-13T08:08:10.810Z,2.2
2023-02-13T08:09:19.500Z,2
2023-02-13T08:10:29.159Z,2.5
2023-02-13T08:11:37.917Z,2.3
2023-02-13T08:12:46.646Z,2.2
2023-02-13T08:13:56.302Z,1.8
2023-02-13T08:15:05.029Z,1.9
2023-02-13T08:16:14.694Z,2.2
2023-02-13T08:17:24.350Z,2.1
2023-02-13T08:18:32.998Z,2
2023-02-13T08:19:43.647Z,2.1
2023-02-13T08:20:52.344Z,2.4
2023-02-13T08:22:00.983Z,2.7
2023-02-13T08:23:10.700Z,2.2
2023-02-13T08:24:19.339Z,2.1
2023-02-13T08:25:29.056Z,2.2
2023-02-13T08:26:37.757Z,2.8
2023-02-13T08:27:46.420Z,2.4
2023-02-13T08:28:56.088Z,2.4
2023-02-13T08:30:04.818Z,2.5
2023-02-13T08:31:14.780Z,2.2
2023-02-13T08:32:24.559Z,2.3
2023-02-13T08:33:34.140Z,2.1
2023-02-13T08:34:43.797Z,2.5
2023-02-13T08:35:52.613Z,1.8
2023-02-13T08:37:01.295Z,2.4
2023-02-13T08:38:10.922Z,2.5
2023-02-13T08:39:19.586Z,2.3
2023-02-13T08:40:29.234Z,3
2023-02-13T08:41:38.893Z,2.2
2023-02-13T08:42:47.574Z,2.3
2023-02-13T08:43:57.289Z,2.4
2023-02-13T08:45:06.978Z,2.8
2023-02-13T08:46:15.687Z,2.5
2023-02-13T08:47:25.545Z,1.8
2023-02-13T08:48:34.180Z,2.2
2023-02-13T08:49:42.847Z,1.8
2023-02-13T08:50:52.506Z,2.1
2023-02-13T08:52:00.161Z,1.8
2023-02-13T08:53:09.871Z,2.5
2023-02-13T08:54:19.513Z,2.3
2023-02-13T08:55:28.157Z,2.3
2023-02-13T08:56:37.925Z,2.2
2023-02-13T08:57:46.589Z,2
2023-02-13T08:58:56.267Z,1.9
2023-02-13T09:00:04.915Z,2.2
2023-02-13T09:01:13.620Z,2.6
2023-02-13T09:02:23.354Z,2.2
2023-02-13T09:03:32.922Z,2.1
2023-02-13T09:04:42.630Z,2.6
2023-02-13T09:05:52.320Z,2.2
2023-02-13T09:06:59.969Z,2.3
2023-02-13T09:08:08.643Z,2.2
2023-02-13T09:09:18.318Z,2.2
2023-02-13T09:10:27.990Z,2.5
2023-02-13T09:11:37.730Z,1.9
2023-02-13T09:12:46.339Z,2.1
2023-02-13T09:13:55.008Z,2.1
2023-02-13T09:15:04.678Z,1.8
2023-02-13T09:16:13.352Z,2
2023-02-13T09:17:21.010Z,2.3
2023-02-13T09:18:30.664Z,2.1
2023-02-13T09:19:40.345Z,2.6
2023-02-13T09:20:50.016Z,1.5
2023-02-13T09:21:58.710Z,2.1
2023-02-13T09:23:07.370Z,2
2023-02-13T09:24:17.042Z,1.8
2023-02-13T09:25:26.761Z,2.5
2023-02-13T09:26:36.420Z,2.2
2023-02-13T09:27:45.112Z,2.4
2023-02-13T09:28:53.769Z,2.4
2023-02-13T09:30:03.442Z,2.4
2023-02-13T09:31:11.200Z,2.2
2023-02-13T09:32:20.758Z,2.2
2023-02-13T09:33:30.453Z,2.3
2023-02-13T09:34:39.124Z,1.9
2023-02-13T09:35:48.803Z,1.6
2023-02-13T09:36:56.450Z,2
2023-02-13T09:38:05.111Z,1.8
2023-02-13T09:39:13.822Z,1.9
2023-02-13T09:40:22.476Z,1.7
2023-02-13T09:41:32.262Z,2.1
2023-02-13T09:42:40.867Z,1.9
2023-02-13T09:43:50.525Z,2.4
2023-02-13T09:45:00.221Z,2.4
2023-02-13T09:46:08.974Z,2.1
2023-02-13T09:47:18.556Z,2.3
2023-02-13T09:48:28.227Z,2.1
2023-02-13T09:49:36.971Z,1.9
2023-02-13T09:50:46.722Z,2.4
2023-02-13T09:51:55.363Z,2.6
2023-02-13T09:53:04.080Z,2
2023-02-13T09:54:13.694Z,2.6
2023-02-13T09:55:22.366Z,1.9
2023-02-13T09:56:31.053Z,1.9
2023-02-13T09:57:40.745Z,2.2
2023-02-13T09:58:48.368Z,2.3
2023-02-13T09:59:58.068Z,2.5
2023-02-13T10:01:06.763Z,1.8
2023-02-13T10:02:16.382Z,2.2
2023-02-13T10:03:26.064Z,2.4
2023-02-13T10:04:34.757Z,2.2
2023-02-13T10:05:43.408Z,2.4
2023-02-13T10:06:53.081Z,2.3
2023-02-13T10:08:00.796Z,2.1
2023-02-13T10:09:10.458Z,1.9
2023-02-13T10:10:19.138Z,1.8
2023-02-13T10:11:27.881Z,2
2023-02-13T10:12:37.546Z,1.9
2023-02-13T10:13:46.288Z,2.2
2023-02-13T10:14:55.926Z,2.2
2023-02-13T10:16:05.733Z,2.1
2023-02-13T10:17:13.283Z,2.2
2023-02-13T10:18:22.981Z,2.4
2023-02-13T10:19:32.673Z,2.8
2023-02-13T10:20:42.336Z,3
2023-02-13T10:21:52.028Z,3.5
2023-02-13T10:22:59.734Z,3.2
2023-02-13T10:24:09.392Z,2.8
2023-02-13T10:25:19.092Z,2.7
2023-02-13T10:26:27.750Z,2.7
2023-02-13T10:27:37.410Z,2.9
2023-02-13T10:28:47.231Z,2.8
2023-02-13T10:29:56.843Z,2.8
2023-02-13T10:31:06.521Z,2.7
2023-02-13T10:32:16.324Z,2.3
2023-02-13T10:33:24.800Z,2.4
2023-02-13T10:34:34.462Z,2.9
2023-02-13T10:35:43.137Z,2
2023-02-13T10:36:52.835Z,2.8
2023-02-13T10:38:01.504Z,2.5
2023-02-13T10:39:11.188Z,2.6
2023-02-13T10:40:20.863Z,3.1
2023-02-13T10:41:28.519Z,2.7
2023-02-13T10:42:39.194Z,2.5
2023-02-13T10:43:48.882Z,3.1
2023-02-13T10:44:57.554Z,2.7
2023-02-13T10:46:07.274Z,2.5
2023-02-13T10:47:15.884Z,2.3
2023-02-13T10:48:26.866Z,2.7
2023-02-13T10:49:36.279Z,2.6
2023-02-13T10:50:43.944Z,2.4
2023-02-13T10:51:52.615Z,2.2
2023-02-13T10:53:02.264Z,3.1
2023-02-13T10:54:10.984Z,2.8
2023-02-13T10:55:20.686Z,2.4
2023-02-13T10:56:30.366Z,2.8
2023-02-13T10:57:39.022Z,2.3
2023-02-13T10:58:48.696Z,2.6
2023-02-13T10:59:56.358Z,2.8
2023-02-13T11:01:05.032Z,2.5
2023-02-13T11:02:14.731Z,2.6
2023-02-13T11:03:23.369Z,2.7
2023-02-13T11:04:33.124Z,2.6
2023-02-13T11:05:41.736Z,2.5
2023-02-13T11:06:50.491Z,2.1
2023-02-13T11:08:00.116Z,2.3
2023-02-13T11:09:07.770Z,2.2
2023-02-13T11:10:16.415Z,2.8
2023-02-13T11:11:26.149Z,2.3
2023-02-13T11:12:34.801Z,2.4
2023-02-13T11:13:44.472Z,2.6
2023-02-13T11:14:53.141Z,3
2023-02-13T11:16:02.359Z,2.3
2023-02-13T11:17:11.520Z,2.8
2023-02-13T11:18:19.210Z,1.6
2023-02-13T11:19:27.821Z,2.6
2023-02-13T11:20:37.468Z,2.8
2023-02-13T11:21:46.274Z,3
2023-02-13T11:22:55.971Z,2.7
2023-02-13T11:24:05.629Z,2.4
2023-02-13T11:25:15.293Z,2.8
2023-02-13T11:26:24.961Z,2.4
2023-02-13T11:27:32.636Z,2.6
2023-02-13T11:28:42.385Z,3
2023-02-13T11:29:51.026Z,3
2023-02-13T11:30:59.828Z,3.2
2023-02-13T11:32:09.455Z,3.2
2023-02-13T11:33:17.061Z,3
2023-02-13T11:34:26.794Z,3.2
2023-02-13T11:35:36.478Z,2.8
2023-02-13T11:36:45.135Z,3
2023-02-13T11:37:54.839Z,2.3
2023-02-13T11:39:03.520Z,3
2023-02-13T11:40:12.184Z,2.8
2023-02-13T11:41:21.841Z,3.1
2023-02-13T11:42:30.618Z,2.9
2023-02-13T11:43:40.244Z,2.6
2023-02-13T11:44:47.909Z,2.6
2023-02-13T11:45:57.899Z,2.5
2023-02-13T11:47:07.373Z,2.5
2023-02-13T11:48:15.040Z,2.5
2023-02-13T11:49:35.818Z,2
2023-02-13T11:50:45.450Z,2.6
2023-02-13T11:51:55.165Z,2
2023-02-13T11:53:03.814Z,2.5
2023-02-13T11:54:14.468Z,2.7
2023-02-13T11:55:22.132Z,2.5
2023-02-13T11:56:30.793Z,2.5
2023-02-13T11:57:40.506Z,2.7
2023-02-13T11:58:49.230Z,2.4
2023-02-13T11:59:58.831Z,2.5
2023-02-13T12:01:07.493Z,2.6
2023-02-13T12:02:15.207Z,2.7
2023-02-13T12:03:24.960Z,3.6
2023-02-13T12:04:33.526Z,3.3
2023-02-13T12:05:42.204Z,3.3
2023-02-13T12:06:51.914Z,3.3
2023-02-13T12:08:01.611Z,3.2
2023-02-13T12:09:11.309Z,3.3
2023-02-13T12:10:19.948Z,3.4
2023-02-13T12:11:27.589Z,3
2023-02-13T12:12:37.234Z,2.8
2023-02-13T12:13:45.905Z,2.5
2023-02-13T12:14:55.577Z,2.5
2023-02-13T12:16:05.365Z,2.6
2023-02-13T12:17:25.606Z,2.8
2023-02-13T12:18:25.550Z,2.6
2023-02-13T12:19:34.217Z,2.9
2023-02-13T12:20:42.134Z,2.4
2023-02-13T12:21:50.861Z,2.4
2023-02-13T12:23:00.508Z,2.7
2023-02-13T12:24:10.145Z,2.8
2023-02-13T12:25:19.817Z,2.5
2023-02-13T12:26:28.490Z,2.2
2023-02-13T12:27:38.169Z,2.3
2023-02-13T12:28:47.838Z,2.8
2023-02-13T12:29:56.587Z,2.6
2023-02-13T12:31:05.267Z,2.5
2023-02-13T12:32:13.946Z,2.6
2023-02-13T12:33:23.604Z,2.2
2023-02-13T12:34:33.298Z,2.7
2023-02-13T12:35:40.943Z,2.7
2023-02-13T12:36:50.657Z,2.2
2023-02-13T12:37:59.377Z,2.1
2023-02-13T12:39:07.998Z,2.5
2023-02-13T12:40:17.653Z,2.5
2023-02-13T12:41:26.294Z,2.2
2023-02-13T12:42:34.947Z,2.9
2023-02-13T12:43:44.629Z,2.3
2023-02-13T12:44:53.280Z,1.9
2023-02-13T12:46:02.997Z,2.2
2023-02-13T12:47:11.595Z,2.5
2023-02-13T12:48:19.229Z,2.3
2023-02-13T12:49:27.920Z,3
2023-02-13T12:50:37.573Z,3.9
2023-02-13T12:51:47.242Z,3
2023-02-13T12:52:56.929Z,3
2023-02-13T12:54:05.595Z,3.2
2023-02-13T12:55:15.267Z,4
2023-02-13T12:56:24.902Z,3.9
2023-02-13T12:57:33.578Z,4.6
2023-02-13T12:58:43.239Z,4.3
2023-02-13T12:59:51.930Z,3.8
2023-02-13T13:01:01.133Z,5.3
2023-02-13T13:02:10.470Z,3.7
2023-02-13T13:03:19.119Z,4
2023-02-13T13:04:28.768Z,4.8
2023-02-13T13:05:37.437Z,4.7
2023-02-13T13:06:46.110Z,4.9
2023-02-13T13:07:55.778Z,4.8
2023-02-13T13:09:04.423Z,4.1
2023-02-13T13:10:13.106Z,4.1
2023-02-13T13:11:22.726Z,5
2023-02-13T13:12:31.411Z,4.8
2023-02-13T13:13:40.088Z,4.7
2023-02-13T13:14:49.747Z,4.8
2023-02-13T13:15:58.397Z,4.8
2023-02-13T13:17:08.052Z,4.8
2023-02-13T13:18:16.713Z,4.5
2023-02-13T13:19:26.435Z,4.5
2023-02-13T13:20:34.070Z,4.2
2023-02-13T13:21:43.748Z,4.1
2023-02-13T13:22:52.423Z,4
2023-02-13T13:24:01.213Z,4.2
2023-02-13T13:25:10.845Z,4.3
2023-02-13T13:26:19.510Z,3.7
2023-02-13T13:27:29.152Z,4.5
2023-02-13T13:28:38.813Z,4.5
2023-02-13T13:29:47.501Z,3.7
2023-02-13T13:30:56.615Z,3.4
2023-02-13T13:32:04.805Z,3
2023-02-13T13:33:13.451Z,3.7
2023-02-13T13:34:23.114Z,3.9
2023-02-13T13:35:31.800Z,3.9
2023-02-13T13:36:39.423Z,4.3
2023-02-13T13:37:48.076Z,4
2023-02-13T13:38:59.525Z,4
2023-02-13T13:40:07.390Z,3.7
2023-02-13T13:41:17.085Z,4.5
2023-02-13T13:42:24.781Z,4.5
2023-02-13T13:43:34.436Z,4.8
2023-02-13T13:44:44.091Z,5.1
2023-02-13T13:45:51.749Z,4.1
2023-02-13T13:47:01.427Z,4.1
2023-02-13T13:48:10.141Z,4.2
2023-02-13T13:49:19.810Z,4.2
2023-02-13T13:50:28.465Z,4.3
2023-02-13T13:51:38.149Z,3.3
2023-02-13T13:52:47.819Z,4
2023-02-13T13:53:56.546Z,4.2
2023-02-13T13:55:05.213Z,4.6
2023-02-13T13:56:14.871Z,5.1
2023-02-13T13:57:23.538Z,3.9
2023-02-13T13:58:32.245Z,4.5
2023-02-13T13:59:41.885Z,4.6
2023-02-13T14:00:50.530Z,4.2
2023-02-13T14:02:00.240Z,4.9
2023-02-13T14:03:08.879Z,4.7
2023-02-13T14:04:16.566Z,4.8
2023-02-13T14:05:26.233Z,4.4
2023-02-13T14:06:35.890Z,3.9
2023-02-13T14:07:45.547Z,3.9
2023-02-13T14:08:55.250Z,4.6
2023-02-13T14:10:02.996Z,3.7
2023-02-13T14:11:12.635Z,4.6
2023-02-13T14:12:21.282Z,3.7
2023-02-13T14:13:29.951Z,3.5
2023-02-13T14:14:39.637Z,3.8
2023-02-13T14:15:48.308Z,4
2023-02-13T14:16:56.939Z,3.8
2023-02-13T14:18:06.582Z,3.5
2023-02-13T14:19:15.279Z,3.6
2023-02-13T14:20:24.942Z,3.3
2023-02-13T14:21:34.633Z,3.7
2023-02-13T14:22:43.288Z,3.3
2023-02-13T14:23:52.954Z,2.8
2023-02-13T14:25:02.597Z,3.5
2023-02-13T14:26:12.271Z,3.2
2023-02-13T14:27:22.041Z,4.1
2023-02-13T14:28:29.641Z,3.1
2023-02-13T14:29:39.295Z,4.4
2023-02-13T14:30:49.123Z,4.1
2023-02-13T14:31:56.756Z,3.4
2023-02-13T14:33:06.339Z,3.8
2023-02-13T14:34:15.995Z,3.3
2023-02-13T14:35:25.660Z,3.8
2023-02-13T14:36:35.296Z,4.2
2023-02-13T14:37:42.941Z,4.1
2023-02-13T14:38:52.639Z,3.7
2023-02-13T14:40:01.299Z,4
2023-02-13T14:41:09.969Z,3.5
2023-02-13T14:42:19.633Z,3.7
2023-02-13T14:43:29.310Z,4.5
2023-02-13T14:44:39.050Z,4.3
2023-02-13T14:45:48.698Z,3.4
2023-02-13T14:46:58.401Z,3.9
2023-02-13T14:48:08.056Z,4
2023-02-13T14:49:17.723Z,4.3
2023-02-13T14:50:25.410Z,3.7
2023-02-13T14:51:35.109Z,3.9
2023-02-13T14:52:42.743Z,3.8
2023-02-13T14:53:51.436Z,4.1
2023-02-13T14:55:01.090Z,3.8
2023-02-13T14:56:09.773Z,3.5
2023-02-13T14:57:19.445Z,3.4
2023-02-13T14:58:28.120Z,3.3
2023-02-13T14:59:35.808Z,2.8
2023-02-13T15:00:45.492Z,3.5
2023-02-13T15:01:55.225Z,3.9
2023-02-13T15:03:03.973Z,2.5
2023-02-13T15:04:12.671Z,2.6
2023-02-13T15:05:21.259Z,3
2023-02-13T15:06:30.944Z,3.2
2023-02-13T15:07:39.854Z,3.2
2023-02-13T15:08:49.535Z,2.9
2023-02-13T15:09:59.208Z,2.5
2023-02-13T15:11:08.851Z,2.6
2023-02-13T15:12:17.528Z,2.6
2023-02-13T15:13:29.310Z,2.8
2023-02-13T15:14:37.873Z,2.8
2023-02-13T15:15:47.533Z,2.9
2023-02-13T15:16:56.192Z,3.2
2023-02-13T15:18:05.868Z,2.2
2023-02-13T15:19:15.651Z,3
2023-02-13T15:20:24.199Z,2.8
2023-02-13T15:21:33.851Z,2.2
2023-02-13T15:22:44.497Z,2.7
2023-02-13T15:23:53.152Z,2.5
2023-02-13T15:25:02.872Z,2.5
2023-02-13T15:26:12.570Z,2.4
2023-02-13T15:27:22.237Z,2.6
2023-02-13T15:28:31.878Z,2.5
2023-02-13T15:29:49.472Z,2.3
2023-02-13T15:30:52.266Z,1.8
2023-02-13T15:32:00.971Z,3.1
2023-02-13T15:33:09.490Z,2.7
2023-02-13T15:34:19.201Z,2.6
2023-02-13T15:35:27.829Z,2.9
2023-02-13T15:36:37.519Z,2.8
2023-02-13T15:37:46.161Z,2.4
2023-02-13T15:38:53.833Z,2.8
2023-02-13T15:40:03.509Z,2.5
2023-02-13T15:41:13.159Z,2.6
2023-02-13T15:42:22.854Z,2.6
2023-02-13T15:43:32.514Z,2.7
2023-02-13T15:44:41.158Z,2.4
2023-02-13T15:45:50.845Z,2.6
2023-02-13T15:47:00.522Z,2.3
2023-02-13T15:48:08.191Z,2.2
2023-02-13T15:49:17.865Z,3.2
2023-02-13T15:50:26.566Z,2.6
2023-02-13T15:51:36.209Z,2.4
2023-02-13T15:52:45.843Z,2.9
2023-02-13T15:53:54.542Z,2.4
2023-02-13T15:55:04.199Z,2.6
2023-02-13T15:56:13.841Z,2.5
2023-02-13T15:57:21.637Z,2.5
2023-02-13T15:58:31.232Z,2.3